Terminal Aerodrome Forecast
Issued by NWS

Current Version | Previous Version | Text Only | Print | Product List | Glossary On
Versions: 1 2 3 4 5 6 7 8 9 10 11 12 13
028
FTUS42 KTAE 111120
TAFABY
TAF
KABY 111120Z 1112/1212 00000KT P6SM SKC
     FM111500 22010KT P6SM SKC
     FM120000 20005KT P6SM SCT050
     FM120900 18003KT 4SM BR SCT010=

USA.gov is the U.S. government's official web portal to all federal, state and local government web resources and services.